Main page
Satellite images 15-day forecastsClimateMarine weather Cyclones Lightning AirportsFAQ Newsletter About
Weather : Europe Africa North America South America Asia Australia-Oceania Others
Languages Contact

New Delhi, India

Indira Gandhi

latitude: 28-34N, longitude: 077-07E, elevation: 220 m


METAR: VIDP 010500Z 30006KT 3000 HZ NSC 33/19 Q1014 NOSIG
TAF: VIDP 010300Z 0106/0212 29006KT 5000 HZ NSC BECMG 0116/0118 VRB02KT 4000 HZ BECMG 0122/0124 00000KT 3000 BR BECMG 0204/0205 30008KT 5000 HZ

Time: 11:26 (05:56 UTC)

Current weather observation

The report was made 56 minutes ago, at 05:00 UTC  
Wind 06 kt from the West/Northwest
Temperature 33°C
Humidity 44%
Pressure 1014 hPa
Visibility 3000 m
haze

Change units

Forecast

The report was made 02 hours and 56 minutes ago, at 03:00 UTC  
Forecast valid from 01 at 06 UTC to 02 at 12 UTC
Wind 06 kt from the West/Northwest
Visibility 5000 m
haze
Becoming
from 01 at 16 UTC to 01 at 18 UTC
Wind 02 kt from variable directions
Visibility 4000 m
haze
Becoming
from 01 at 22 UTC to 01 at 24 UTC
Wind 00 kt from the North
Visibility 3000 m
mist
Becoming
from 02 at 04 UTC to 02 at 05 UTC
Wind 08 kt from the West/Northwest
Visibility 5000 m
haze
The information on this site is subject to a disclaimer
Weather : Europe Africa North America South America Asia Australia-Oceania Others
Satellite images 15-day forecastsClimateMarine weather Cyclones Lightning AirportsFAQ Languages Contact Newsletter About